Time,TemperatureF,DewpointF,PressureIn,WindDirection,WindDirectionDegrees,WindSpeedMPH,WindSpeedGustMPH,Humidity,HourlyPrecipIn,Conditions,Clouds,dailyrainin,SoftwareType,DateUTC
2013-05-09 00:00:00,77.0,71.0,30.14,NE,40,10.0,11.0,82,-99.99,,,-99.99,,2013-05-09 04:00:00,
2013-05-09 00:22:00,77.0,71.0,30.14,NE,40,10.0,11.0,82,-99.99,,,-99.99,,2013-05-09 04:22:00,
2013-05-09 00:32:00,77.0,71.0,30.14,NE,40,10.0,11.0,82,-99.99,,,-99.99,,2013-05-09 04:32:00,
2013-05-09 00:42:00,77.0,71.0,30.14,NE,40,10.0,11.0,82,-99.99,,,-99.99,,2013-05-09 04:42:00,
2013-05-09 00:52:00,77.0,71.0,30.14,NE,40,10.0,11.0,82,-99.99,,,-99.99,,2013-05-09 04:52:00,
2013-05-09 01:00:00,77.0,71.0,30.13,NE,50,9.0,11.0,80,-99.99,,,-99.99,,2013-05-09 05:00:00,
2013-05-09 01:21:00,77.0,71.0,30.13,NE,50,9.0,11.0,80,-99.99,,,-99.99,,2013-05-09 05:21:00,
2013-05-09 01:32:00,77.0,71.0,30.13,NE,50,9.0,11.0,80,-99.99,,,-99.99,,2013-05-09 05:32:00,
2013-05-09 01:42:00,77.0,71.0,30.13,NE,50,9.0,11.0,80,-99.99,,,-99.99,,2013-05-09 05:42:00,
2013-05-09 01:51:00,77.0,71.0,30.13,NE,50,9.0,11.0,80,-99.99,,,-99.99,,2013-05-09 05:51:00,
2013-05-09 02:00:00,76.0,72.0,30.12,NNE,30,7.0,7.0,85,-99.99,,,-99.99,,2013-05-09 06:00:00,
2013-05-09 02:21:00,76.0,72.0,30.12,NNE,30,7.0,7.0,85,-99.99,,,-99.99,,2013-05-09 06:21:00,
2013-05-09 02:32:00,76.0,72.0,30.12,NNE,30,7.0,7.0,85,-99.99,,,-99.99,,2013-05-09 06:32:00,
2013-05-09 02:41:00,76.0,72.0,30.12,NNE,30,7.0,7.0,85,-99.99,,,-99.99,,2013-05-09 06:41:00,
2013-05-09 02:52:00,76.0,72.0,30.12,NNE,30,7.0,7.0,85,-99.99,,,-99.99,,2013-05-09 06:52:00,
2013-05-09 03:00:00,76.0,72.0,30.10,NNE,30,9.0,11.0,88,-99.99,,,-99.99,,2013-05-09 07:00:00,
2013-05-09 03:21:00,76.0,72.0,30.10,NNE,30,9.0,11.0,88,-99.99,,,-99.99,,2013-05-09 07:21:00,
2013-05-09 03:31:00,76.0,72.0,30.10,NNE,30,9.0,11.0,88,-99.99,,,-99.99,,2013-05-09 07:31:00,
2013-05-09 03:42:00,76.0,72.0,30.10,NNE,30,9.0,11.0,88,-99.99,,,-99.99,,2013-05-09 07:42:00,
2013-05-09 03:52:00,76.0,72.0,30.10,NNE,30,9.0,11.0,88,-99.99,,,-99.99,,2013-05-09 07:52:00,
2013-05-09 04:00:00,76.0,72.0,30.09,NNE,30,9.0,10.0,87,-99.99,,,-99.99,,2013-05-09 08:00:00,
2013-05-09 04:21:00,76.0,72.0,30.09,NNE,30,9.0,10.0,87,-99.99,,,-99.99,,2013-05-09 08:21:00,
2013-05-09 04:31:00,76.0,72.0,30.09,NNE,30,9.0,10.0,87,-99.99,,,-99.99,,2013-05-09 08:31:00,
2013-05-09 04:41:00,76.0,72.0,30.09,NNE,30,9.0,10.0,87,-99.99,,,-99.99,,2013-05-09 08:41:00,
2013-05-09 04:51:00,76.0,72.0,30.09,NNE,30,9.0,10.0,87,-99.99,,,-99.99,,2013-05-09 08:51:00,
2013-05-09 05:00:00,76.0,70.0,30.08,NE,50,13.0,14.0,82,-99.99,,,-99.99,,2013-05-09 09:00:00,
2013-05-09 05:21:00,76.0,70.0,30.08,NE,50,13.0,14.0,82,-99.99,,,-99.99,,2013-05-09 09:21:00,
2013-05-09 05:32:00,76.0,70.0,30.08,NE,50,13.0,14.0,82,-99.99,,,-99.99,,2013-05-09 09:32:00,
2013-05-09 05:42:00,76.0,70.0,30.08,NE,50,13.0,14.0,82,-99.99,,,-99.99,,2013-05-09 09:42:00,
2013-05-09 05:52:00,76.0,70.0,30.08,NE,50,13.0,14.0,82,-99.99,,,-99.99,,2013-05-09 09:52:00,
2013-05-09 06:00:00,76.0,70.0,30.09,NNE,30,13.0,14.0,83,-99.99,,,-99.99,,2013-05-09 10:00:00,
2013-05-09 06:22:00,76.0,70.0,30.09,NNE,30,13.0,14.0,83,-99.99,,,-99.99,,2013-05-09 10:22:00,
2013-05-09 06:32:00,76.0,70.0,30.09,NNE,30,13.0,14.0,83,-99.99,,,-99.99,,2013-05-09 10:32:00,
2013-05-09 06:41:00,76.0,70.0,30.09,NNE,30,13.0,14.0,83,-99.99,,,-99.99,,2013-05-09 10:41:00,
2013-05-09 06:52:00,76.0,70.0,30.09,NNE,30,13.0,14.0,83,-99.99,,,-99.99,,2013-05-09 10:52:00,
2013-05-09 07:00:00,75.0,69.0,30.09,NNE,30,15.0,16.0,80,-99.99,,,-99.99,,2013-05-09 11:00:00,
2013-05-09 07:22:00,75.0,69.0,30.09,NNE,30,15.0,16.0,80,-99.99,,,-99.99,,2013-05-09 11:22:00,
2013-05-09 07:32:00,75.0,69.0,30.09,NNE,30,15.0,16.0,80,-99.99,,,-99.99,,2013-05-09 11:32:00,
2013-05-09 07:41:00,75.0,69.0,30.09,NNE,30,15.0,16.0,80,-99.99,,,-99.99,,2013-05-09 11:41:00,
2013-05-09 07:51:00,75.0,69.0,30.09,NNE,30,15.0,16.0,80,-99.99,,,-99.99,,2013-05-09 11:51:00,
2013-05-09 08:00:00,75.0,67.0,30.11,NNE,30,15.0,15.0,75,-99.99,,,-99.99,,2013-05-09 12:00:00,
2013-05-09 08:21:00,75.0,67.0,30.11,NNE,30,15.0,15.0,75,-99.99,,,-99.99,,2013-05-09 12:21:00,
2013-05-09 08:31:00,75.0,67.0,30.11,NNE,30,15.0,15.0,75,-99.99,,,-99.99,,2013-05-09 12:31:00,
2013-05-09 08:42:00,75.0,67.0,30.11,NNE,30,15.0,15.0,75,-99.99,,,-99.99,,2013-05-09 12:42:00,
2013-05-09 08:51:00,75.0,67.0,30.11,NNE,30,15.0,15.0,75,-99.99,,,-99.99,,2013-05-09 12:51:00,
2013-05-09 09:00:00,76.0,67.0,30.12,NE,50,13.0,14.0,75,-99.99,,,-99.99,,2013-05-09 13:00:00,
2013-05-09 09:21:00,76.0,67.0,30.12,NE,50,13.0,14.0,75,-99.99,,,-99.99,,2013-05-09 13:21:00,
2013-05-09 09:31:00,76.0,67.0,30.12,NE,50,13.0,14.0,75,-99.99,,,-99.99,,2013-05-09 13:31:00,
2013-05-09 09:42:00,76.0,67.0,30.12,NE,50,13.0,14.0,75,-99.99,,,-99.99,,2013-05-09 13:42:00,
2013-05-09 09:52:00,76.0,67.0,30.12,NE,50,13.0,14.0,75,-99.99,,,-99.99,,2013-05-09 13:52:00,
2013-05-09 10:00:00,76.0,67.0,30.13,NE,50,14.0,15.0,75,-99.99,,,-99.99,,2013-05-09 14:00:00,
2013-05-09 10:21:00,76.0,67.0,30.13,NE,50,14.0,15.0,75,-99.99,,,-99.99,,2013-05-09 14:21:00,
2013-05-09 10:32:00,76.0,67.0,30.13,NE,50,14.0,15.0,75,-99.99,,,-99.99,,2013-05-09 14:32:00,
2013-05-09 10:41:00,76.0,67.0,30.13,NE,50,14.0,15.0,75,-99.99,,,-99.99,,2013-05-09 14:41:00,
2013-05-09 10:52:00,76.0,67.0,30.13,NE,50,14.0,15.0,75,-99.99,,,-99.99,,2013-05-09 14:52:00,
2013-05-09 11:00:00,77.0,68.0,30.15,ENE,60,11.0,13.0,75,-99.99,,,-99.99,,2013-05-09 15:00:00,
2013-05-09 11:21:00,77.0,68.0,30.15,ENE,60,11.0,13.0,75,-99.99,,,-99.99,,2013-05-09 15:21:00,
2013-05-09 11:32:00,77.0,68.0,30.15,ENE,60,11.0,13.0,75,-99.99,,,-99.99,,2013-05-09 15:32:00,
2013-05-09 11:42:00,77.0,68.0,30.15,ENE,60,11.0,13.0,75,-99.99,,,-99.99,,2013-05-09 15:42:00,
2013-05-09 11:52:00,77.0,68.0,30.15,ENE,60,11.0,13.0,75,-99.99,,,-99.99,,2013-05-09 15:52:00,
2013-05-09 12:00:00,78.0,68.0,30.15,NE,50,13.0,14.0,73,-99.99,,,-99.99,,2013-05-09 16:00:00,
2013-05-09 12:22:00,78.0,68.0,30.15,NE,50,13.0,14.0,73,-99.99,,,-99.99,,2013-05-09 16:22:00,
2013-05-09 12:32:00,78.0,68.0,30.15,NE,50,13.0,14.0,73,-99.99,,,-99.99,,2013-05-09 16:32:00,
2013-05-09 12:41:00,78.0,68.0,30.15,NE,50,13.0,14.0,73,-99.99,,,-99.99,,2013-05-09 16:41:00,
2013-05-09 12:52:00,78.0,68.0,30.15,NE,50,13.0,14.0,73,-99.99,,,-99.99,,2013-05-09 16:52:00,
2013-05-09 13:00:00,78.0,70.0,30.15,ENE,60,14.0,15.0,74,-99.99,,,-99.99,,2013-05-09 17:00:00,
2013-05-09 13:21:00,78.0,70.0,30.15,ENE,60,14.0,15.0,74,-99.99,,,-99.99,,2013-05-09 17:21:00,
2013-05-09 13:32:00,78.0,70.0,30.15,ENE,60,14.0,15.0,74,-99.99,,,-99.99,,2013-05-09 17:32:00,
2013-05-09 13:41:00,78.0,70.0,30.15,ENE,60,14.0,15.0,74,-99.99,,,-99.99,,2013-05-09 17:41:00,
2013-05-09 13:54:00,78.0,70.0,30.15,ENE,60,14.0,15.0,74,-99.99,,,-99.99,,2013-05-09 17:54:00,
2013-05-09 14:00:00,79.0,73.0,30.13,ENE,70,15.0,17.0,82,-99.99,,,-99.99,,2013-05-09 18:00:00,
2013-05-09 14:21:00,79.0,73.0,30.13,ENE,70,15.0,17.0,82,-99.99,,,-99.99,,2013-05-09 18:21:00,
2013-05-09 14:31:00,79.0,73.0,30.13,ENE,70,15.0,17.0,82,-99.99,,,-99.99,,2013-05-09 18:31:00,
2013-05-09 14:41:00,79.0,73.0,30.13,ENE,70,15.0,17.0,82,-99.99,,,-99.99,,2013-05-09 18:41:00,
2013-05-09 14:52:00,79.0,73.0,30.13,ENE,70,15.0,17.0,82,-99.99,,,-99.99,,2013-05-09 18:52:00,
2013-05-09 15:00:00,79.0,75.0,30.12,ENE,70,10.0,11.0,87,-99.99,,,-99.99,,2013-05-09 19:00:00,
2013-05-09 15:21:00,79.0,75.0,30.12,ENE,70,10.0,11.0,87,-99.99,,,-99.99,,2013-05-09 19:21:00,
2013-05-09 15:31:00,79.0,75.0,30.12,ENE,70,10.0,11.0,87,-99.99,,,-99.99,,2013-05-09 19:31:00,
2013-05-09 15:41:00,79.0,75.0,30.12,ENE,70,10.0,11.0,87,-99.99,,,-99.99,,2013-05-09 19:41:00,
2013-05-09 15:52:00,79.0,75.0,30.12,ENE,70,10.0,11.0,87,-99.99,,,-99.99,,2013-05-09 19:52:00,
2013-05-09 16:00:00,80.0,77.0,30.10,East,80,9.0,9.0,89,-99.99,,,-99.99,,2013-05-09 20:00:00,
2013-05-09 16:21:00,80.0,77.0,30.10,East,80,9.0,9.0,89,-99.99,,,-99.99,,2013-05-09 20:21:00,
2013-05-09 16:31:00,80.0,77.0,30.10,East,80,9.0,9.0,89,-99.99,,,-99.99,,2013-05-09 20:31:00,
2013-05-09 16:42:00,80.0,77.0,30.10,East,80,9.0,9.0,89,-99.99,,,-99.99,,2013-05-09 20:42:00,
2013-05-09 16:52:00,80.0,77.0,30.10,East,80,9.0,9.0,89,-99.99,,,-99.99,,2013-05-09 20:52:00,
2013-05-09 17:00:00,81.0,77.0,30.09,East,80,8.0,9.0,89,-99.99,,,-99.99,,2013-05-09 21:00:00,
2013-05-09 17:22:00,81.0,77.0,30.09,East,80,8.0,9.0,89,-99.99,,,-99.99,,2013-05-09 21:22:00,
2013-05-09 17:32:00,81.0,77.0,30.09,East,80,8.0,9.0,89,-99.99,,,-99.99,,2013-05-09 21:32:00,
2013-05-09 17:42:00,81.0,77.0,30.09,East,80,8.0,9.0,89,-99.99,,,-99.99,,2013-05-09 21:42:00,
2013-05-09 17:52:00,81.0,77.0,30.09,East,80,8.0,9.0,89,-99.99,,,-99.99,,2013-05-09 21:52:00,
2013-05-09 18:00:00,80.0,75.0,30.08,ENE,60,8.0,8.0,84,-99.99,,,-99.99,,2013-05-09 22:00:00,
2013-05-09 18:22:00,80.0,75.0,30.08,ENE,60,8.0,8.0,84,-99.99,,,-99.99,,2013-05-09 22:22:00,
2013-05-09 18:32:00,80.0,75.0,30.08,ENE,60,8.0,8.0,84,-99.99,,,-99.99,,2013-05-09 22:32:00,
2013-05-09 18:42:00,80.0,75.0,30.08,ENE,60,8.0,8.0,84,-99.99,,,-99.99,,2013-05-09 22:42:00,
2013-05-09 18:52:00,80.0,75.0,30.08,ENE,60,8.0,8.0,84,-99.99,,,-99.99,,2013-05-09 22:52:00,
2013-05-09 19:00:00,80.0,76.0,30.09,ENE,70,10.0,10.0,85,-99.99,,,-99.99,,2013-05-09 23:00:00,
2013-05-09 19:21:00,80.0,76.0,30.09,ENE,70,10.0,10.0,85,-99.99,,,-99.99,,2013-05-09 23:21:00,
2013-05-09 19:32:00,80.0,76.0,30.09,ENE,70,10.0,10.0,85,-99.99,,,-99.99,,2013-05-09 23:32:00,
2013-05-09 19:42:00,80.0,76.0,30.09,ENE,70,10.0,10.0,85,-99.99,,,-99.99,,2013-05-09 23:42:00,
2013-05-09 19:52:00,80.0,76.0,30.09,ENE,70,10.0,10.0,85,-99.99,,,-99.99,,2013-05-09 23:52:00,
2013-05-09 20:00:00,80.0,77.0,30.09,ESE,110,15.0,16.0,92,-99.99,,,-99.99,,2013-05-10 00:00:00,
2013-05-09 20:21:00,80.0,77.0,30.09,ESE,110,15.0,16.0,92,-99.99,,,-99.99,,2013-05-10 00:21:00,
2013-05-09 20:31:00,80.0,77.0,30.09,ESE,110,15.0,16.0,92,-99.99,,,-99.99,,2013-05-10 00:31:00,
2013-05-09 20:42:00,80.0,77.0,30.09,ESE,110,15.0,16.0,92,-99.99,,,-99.99,,2013-05-10 00:42:00,
2013-05-09 20:51:00,80.0,77.0,30.09,ESE,110,15.0,16.0,92,-99.99,,,-99.99,,2013-05-10 00:51:00,
2013-05-09 21:00:00,80.0,76.0,30.12,ESE,120,15.0,16.0,88,-99.99,,,-99.99,,2013-05-10 01:00:00,
2013-05-09 21:21:00,80.0,76.0,30.12,ESE,120,15.0,16.0,88,-99.99,,,-99.99,,2013-05-10 01:21:00,
2013-05-09 21:31:00,80.0,76.0,30.12,ESE,120,15.0,16.0,88,-99.99,,,-99.99,,2013-05-10 01:31:00,
2013-05-09 21:41:00,80.0,76.0,30.12,ESE,120,15.0,16.0,88,-99.99,,,-99.99,,2013-05-10 01:41:00,
2013-05-09 21:52:00,80.0,76.0,30.12,ESE,120,15.0,16.0,88,-99.99,,,-99.99,,2013-05-10 01:52:00,
2013-05-09 22:00:00,79.0,77.0,30.12,SSE,150,15.0,16.0,93,-99.99,,,-99.99,,2013-05-10 02:00:00,
2013-05-09 22:21:00,79.0,77.0,30.12,SSE,150,15.0,16.0,93,-99.99,,,-99.99,,2013-05-10 02:21:00,
2013-05-09 22:31:00,79.0,77.0,30.12,SSE,150,15.0,16.0,93,-99.99,,,-99.99,,2013-05-10 02:31:00,
2013-05-09 22:42:00,79.0,77.0,30.12,SSE,150,15.0,16.0,93,-99.99,,,-99.99,,2013-05-10 02:42:00,
2013-05-09 22:52:00,79.0,77.0,30.12,SSE,150,15.0,16.0,93,-99.99,,,-99.99,,2013-05-10 02:52:00,
2013-05-09 23:00:00,79.0,77.0,30.12,SE,130,11.0,11.0,92,-99.99,,,-99.99,,2013-05-10 03:00:00,
2013-05-09 23:21:00,79.0,77.0,30.12,SE,130,11.0,11.0,92,-99.99,,,-99.99,,2013-05-10 03:21:00,
2013-05-09 23:32:00,79.0,77.0,30.12,SE,130,11.0,11.0,92,-99.99,,,-99.99,,2013-05-10 03:32:00,
2013-05-09 23:42:00,79.0,77.0,30.12,SE,130,11.0,11.0,92,-99.99,,,-99.99,,2013-05-10 03:42:00,
2013-05-09 23:52:00,79.0,77.0,30.12,SE,130,11.0,11.0,92,-99.99,,,-99.99,,2013-05-10 03:52:00,